sensor_id;sensor_type;location;lat;lon;timestamp;temperature;humidity
58309;DHT22;44117;57.142;24.826;2022-10-26T00:00:49;11.00;99.90
58309;DHT22;44117;57.142;24.826;2022-10-26T00:03:16;11.00;99.90
58309;DHT22;44117;57.142;24.826;2022-10-26T00:05:44;11.00;99.90
58309;DHT22;44117;57.142;24.826;2022-10-26T00:08:11;11.00;99.90
58309;DHT22;44117;57.142;24.826;2022-10-26T00:10:38;11.00;99.90
58309;DHT22;44117;57.142;24.826;2022-10-26T00:13:09;11.00;99.90
58309;DHT22;44117;57.142;24.826;2022-10-26T00:15:41;11.00;99.90
58309;DHT22;44117;57.142;24.826;2022-10-26T00:18:09;11.00;99.90
58309;DHT22;44117;57.142;24.826;2022-10-26T00:20:36;11.00;99.90
58309;DHT22;44117;57.142;24.826;2022-10-26T00:23:03;11.00;99.90
58309;DHT22;44117;57.142;24.826;2022-10-26T00:25:30;10.90;99.90
58309;DHT22;44117;57.142;24.826;2022-10-26T00:27:57;10.90;99.90
58309;DHT22;44117;57.142;24.826;2022-10-26T00:30:25;10.90;99.90
58309;DHT22;44117;57.142;24.826;2022-10-26T00:32:52;10.90;99.90
58309;DHT22;44117;57.142;24.826;2022-10-26T00:35:19;10.90;99.90
58309;DHT22;44117;57.142;24.826;2022-10-26T00:38:06;10.90;99.90
58309;DHT22;44117;57.142;24.826;2022-10-26T00:40:34;10.90;99.90
58309;DHT22;44117;57.142;24.826;2022-10-26T00:43:01;10.90;99.90
58309;DHT22;44117;57.142;24.826;2022-10-26T00:45:29;10.90;99.90
58309;DHT22;44117;57.142;24.826;2022-10-26T00:48:02;10.90;99.90
58309;DHT22;44117;57.142;24.826;2022-10-26T00:50:41;10.90;99.90
58309;DHT22;44117;57.142;24.826;2022-10-26T00:53:10;10.90;99.90
58309;DHT22;44117;57.142;24.826;2022-10-26T00:55:41;10.90;99.90
58309;DHT22;44117;57.142;24.826;2022-10-26T00:58:11;10.90;99.90
58309;DHT22;44117;57.142;24.826;2022-10-26T01:00:40;10.90;99.90
58309;DHT22;44117;57.142;24.826;2022-10-26T01:03:08;10.90;99.90
58309;DHT22;44117;57.142;24.826;2022-10-26T01:05:39;10.80;99.90
58309;DHT22;44117;57.142;24.826;2022-10-26T01:08:07;10.80;99.90
58309;DHT22;44117;57.142;24.826;2022-10-26T01:10:37;10.80;99.90
58309;DHT22;44117;57.142;24.826;2022-10-26T01:13:06;10.90;99.90
58309;DHT22;44117;57.142;24.826;2022-10-26T01:18:43;10.80;99.90
58309;DHT22;44117;57.142;24.826;2022-10-26T01:21:38;10.80;99.90
58309;DHT22;44117;57.142;24.826;2022-10-26T01:32:12;10.80;99.90
58309;DHT22;44117;57.142;24.826;2022-10-26T01:35:04;10.80;99.90
58309;DHT22;44117;57.142;24.826;2022-10-26T01:37:38;10.80;99.90
58309;DHT22;44117;57.142;24.826;2022-10-26T01:40:42;10.80;99.90
58309;DHT22;44117;57.142;24.826;2022-10-26T01:43:13;10.80;99.90
58309;DHT22;44117;57.142;24.826;2022-10-26T01:45:44;10.80;99.90
58309;DHT22;44117;57.142;24.826;2022-10-26T01:48:16;10.80;99.90
58309;DHT22;44117;57.142;24.826;2022-10-26T01:50:46;10.80;99.90
58309;DHT22;44117;57.142;24.826;2022-10-26T01:53:15;10.80;99.90
58309;DHT22;44117;57.142;24.826;2022-10-26T01:55:50;10.80;99.90
58309;DHT22;44117;57.142;24.826;2022-10-26T02:04:40;10.80;99.90
58309;DHT22;44117;57.142;24.826;2022-10-26T02:15:55;10.80;99.90
58309;DHT22;44117;57.142;24.826;2022-10-26T02:18:37;10.80;99.90
58309;DHT22;44117;57.142;24.826;2022-10-26T02:21:13;10.80;99.90
58309;DHT22;44117;57.142;24.826;2022-10-26T02:23:44;10.80;99.90
58309;DHT22;44117;57.142;24.826;2022-10-26T02:26:15;10.80;99.90
58309;DHT22;44117;57.142;24.826;2022-10-26T02:28:47;10.80;99.90
58309;DHT22;44117;57.142;24.826;2022-10-26T02:31:16;10.80;99.90
58309;DHT22;44117;57.142;24.826;2022-10-26T02:33:47;10.80;99.90
58309;DHT22;44117;57.142;24.826;2022-10-26T02:36:24;10.80;99.90
58309;DHT22;44117;57.142;24.826;2022-10-26T02:38:53;10.80;99.90
58309;DHT22;44117;57.142;24.826;2022-10-26T02:41:23;10.80;99.90
58309;DHT22;44117;57.142;24.826;2022-10-26T02:44:03;10.80;99.90
58309;DHT22;44117;57.142;24.826;2022-10-26T02:46:32;10.80;99.90
58309;DHT22;44117;57.142;24.826;2022-10-26T02:49:00;10.70;99.90
58309;DHT22;44117;57.142;24.826;2022-10-26T02:59:42;10.80;99.90
58309;DHT22;44117;57.142;24.826;2022-10-26T03:02:11;10.80;99.90
58309;DHT22;44117;57.142;24.826;2022-10-26T03:04:38;10.80;99.90
58309;DHT22;44117;57.142;24.826;2022-10-26T03:07:06;10.80;99.90
58309;DHT22;44117;57.142;24.826;2022-10-26T03:09:33;10.80;99.90
58309;DHT22;44117;57.142;24.826;2022-10-26T03:12:00;10.80;99.90
58309;DHT22;44117;57.142;24.826;2022-10-26T03:14:27;10.80;99.90
58309;DHT22;44117;57.142;24.826;2022-10-26T03:16:54;10.80;99.90
58309;DHT22;44117;57.142;24.826;2022-10-26T03:19:22;10.80;99.90
58309;DHT22;44117;57.142;24.826;2022-10-26T03:21:49;10.80;99.90
58309;DHT22;44117;57.142;24.826;2022-10-26T03:24:16;10.80;99.90
58309;DHT22;44117;57.142;24.826;2022-10-26T03:26:43;10.80;99.90
58309;DHT22;44117;57.142;24.826;2022-10-26T03:29:10;10.80;99.90
58309;DHT22;44117;57.142;24.826;2022-10-26T03:31:37;10.80;99.90
58309;DHT22;44117;57.142;24.826;2022-10-26T03:34:04;10.80;99.90
58309;DHT22;44117;57.142;24.826;2022-10-26T03:36:32;10.80;99.90
58309;DHT22;44117;57.142;24.826;2022-10-26T03:38:59;10.90;99.90
58309;DHT22;44117;57.142;24.826;2022-10-26T03:41:27;10.90;99.90
58309;DHT22;44117;57.142;24.826;2022-10-26T03:43:54;10.90;99.90
58309;DHT22;44117;57.142;24.826;2022-10-26T03:46:21;10.90;99.90
58309;DHT22;44117;57.142;24.826;2022-10-26T03:48:48;10.90;99.90
58309;DHT22;44117;57.142;24.826;2022-10-26T03:51:15;10.90;99.90
58309;DHT22;44117;57.142;24.826;2022-10-26T03:53:42;10.90;99.90
58309;DHT22;44117;57.142;24.826;2022-10-26T03:56:10;10.90;99.90
58309;DHT22;44117;57.142;24.826;2022-10-26T03:58:37;10.90;99.90
58309;DHT22;44117;57.142;24.826;2022-10-26T04:01:04;10.90;99.90
58309;DHT22;44117;57.142;24.826;2022-10-26T04:03:31;10.90;99.90
58309;DHT22;44117;57.142;24.826;2022-10-26T04:06:02;10.90;99.90
58309;DHT22;44117;57.142;24.826;2022-10-26T04:08:30;10.90;99.90
58309;DHT22;44117;57.142;24.826;2022-10-26T04:10:57;10.90;99.90
58309;DHT22;44117;57.142;24.826;2022-10-26T04:13:30;10.90;99.90
58309;DHT22;44117;57.142;24.826;2022-10-26T04:15:57;10.90;99.90
58309;DHT22;44117;57.142;24.826;2022-10-26T04:18:24;10.90;99.90
58309;DHT22;44117;57.142;24.826;2022-10-26T04:20:52;10.90;99.90
58309;DHT22;44117;57.142;24.826;2022-10-26T04:23:19;10.90;99.90
58309;DHT22;44117;57.142;24.826;2022-10-26T04:25:47;10.90;99.90
58309;DHT22;44117;57.142;24.826;2022-10-26T04:28:14;10.90;99.90
58309;DHT22;44117;57.142;24.826;2022-10-26T04:30:41;10.90;99.90
58309;DHT22;44117;57.142;24.826;2022-10-26T04:33:08;10.90;99.90
58309;DHT22;44117;57.142;24.826;2022-10-26T04:35:35;11.00;99.90
58309;DHT22;44117;57.142;24.826;2022-10-26T04:38:05;11.00;99.90
58309;DHT22;44117;57.142;24.826;2022-10-26T04:40:33;11.00;99.90
58309;DHT22;44117;57.142;24.826;2022-10-26T04:43:01;11.00;99.90
58309;DHT22;44117;57.142;24.826;2022-10-26T04:45:28;11.00;99.90
58309;DHT22;44117;57.142;24.826;2022-10-26T04:48:08;11.00;99.90
58309;DHT22;44117;57.142;24.826;2022-10-26T04:50:36;11.00;99.90
58309;DHT22;44117;57.142;24.826;2022-10-26T04:53:05;11.00;99.90
58309;DHT22;44117;57.142;24.826;2022-10-26T04:55:33;11.00;99.90
58309;DHT22;44117;57.142;24.826;2022-10-26T04:58:00;11.00;99.90
58309;DHT22;44117;57.142;24.826;2022-10-26T05:00:28;11.00;99.90
58309;DHT22;44117;57.142;24.826;2022-10-26T05:03:00;11.00;99.90
58309;DHT22;44117;57.142;24.826;2022-10-26T05:05:30;11.00;99.90
58309;DHT22;44117;57.142;24.826;2022-10-26T05:07:57;11.00;99.90
58309;DHT22;44117;57.142;24.826;2022-10-26T05:10:25;11.00;99.90
58309;DHT22;44117;57.142;24.826;2022-10-26T05:12:53;11.10;99.90
58309;DHT22;44117;57.142;24.826;2022-10-26T05:15:21;11.00;99.90
58309;DHT22;44117;57.142;24.826;2022-10-26T05:17:56;11.00;99.90
58309;DHT22;44117;57.142;24.826;2022-10-26T05:20:24;11.10;99.90
58309;DHT22;44117;57.142;24.826;2022-10-26T05:22:57;11.10;99.90
58309;DHT22;44117;57.142;24.826;2022-10-26T05:25:26;11.10;99.90
58309;DHT22;44117;57.142;24.826;2022-10-26T05:28:01;11.10;99.90
58309;DHT22;44117;57.142;24.826;2022-10-26T05:30:29;11.10;99.90
58309;DHT22;44117;57.142;24.826;2022-10-26T05:32:58;11.10;99.90
58309;DHT22;44117;57.142;24.826;2022-10-26T05:35:27;11.10;99.90
58309;DHT22;44117;57.142;24.826;2022-10-26T05:37:54;11.10;99.90
58309;DHT22;44117;57.142;24.826;2022-10-26T05:40:21;11.10;99.90
58309;DHT22;44117;57.142;24.826;2022-10-26T05:42:49;11.10;99.90
58309;DHT22;44117;57.142;24.826;2022-10-26T05:45:19;11.20;99.90
58309;DHT22;44117;57.142;24.826;2022-10-26T05:47:46;11.10;99.90
58309;DHT22;44117;57.142;24.826;2022-10-26T05:50:14;11.20;99.90
58309;DHT22;44117;57.142;24.826;2022-10-26T05:52:45;11.20;99.90
58309;DHT22;44117;57.142;24.826;2022-10-26T05:55:15;11.20;99.90
58309;DHT22;44117;57.142;24.826;2022-10-26T05:57:43;11.20;99.90
58309;DHT22;44117;57.142;24.826;2022-10-26T06:00:30;11.20;99.90
58309;DHT22;44117;57.142;24.826;2022-10-26T06:05:58;11.30;99.90
58309;DHT22;44117;57.142;24.826;2022-10-26T06:08:26;11.20;99.90
58309;DHT22;44117;57.142;24.826;2022-10-26T06:10:55;11.30;99.90
58309;DHT22;44117;57.142;24.826;2022-10-26T06:13:23;11.30;99.90
58309;DHT22;44117;57.142;24.826;2022-10-26T06:22:02;11.40;99.90
58309;DHT22;44117;57.142;24.826;2022-10-26T06:24:37;11.40;99.90
58309;DHT22;44117;57.142;24.826;2022-10-26T06:32:26;11.40;99.90
58309;DHT22;44117;57.142;24.826;2022-10-26T06:37:54;11.40;99.90
58309;DHT22;44117;57.142;24.826;2022-10-26T06:40:23;11.40;99.90
58309;DHT22;44117;57.142;24.826;2022-10-26T06:42:50;11.40;99.90
58309;DHT22;44117;57.142;24.826;2022-10-26T06:45:18;11.40;99.90
58309;DHT22;44117;57.142;24.826;2022-10-26T06:47:51;11.40;99.90
58309;DHT22;44117;57.142;24.826;2022-10-26T06:55:39;11.40;99.90
58309;DHT22;44117;57.142;24.826;2022-10-26T06:58:22;11.50;99.90
58309;DHT22;44117;57.142;24.826;2022-10-26T07:00:53;11.50;99.90
58309;DHT22;44117;57.142;24.826;2022-10-26T07:03:21;11.50;99.90
58309;DHT22;44117;57.142;24.826;2022-10-26T07:05:48;11.50;99.90
58309;DHT22;44117;57.142;24.826;2022-10-26T07:08:17;11.50;99.90
58309;DHT22;44117;57.142;24.826;2022-10-26T07:10:46;11.50;99.90
58309;DHT22;44117;57.142;24.826;2022-10-26T07:13:13;11.60;99.90
58309;DHT22;44117;57.142;24.826;2022-10-26T07:15:40;11.60;99.90
58309;DHT22;44117;57.142;24.826;2022-10-26T07:18:09;11.60;99.90
58309;DHT22;44117;57.142;24.826;2022-10-26T07:20:38;11.60;99.90
58309;DHT22;44117;57.142;24.826;2022-10-26T07:23:06;11.60;99.90
58309;DHT22;44117;57.142;24.826;2022-10-26T07:25:34;11.70;99.90
58309;DHT22;44117;57.142;24.826;2022-10-26T07:28:09;11.80;99.90
58309;DHT22;44117;57.142;24.826;2022-10-26T07:30:37;11.80;99.90
58309;DHT22;44117;57.142;24.826;2022-10-26T07:33:09;11.80;99.90
58309;DHT22;44117;57.142;24.826;2022-10-26T07:35:37;11.80;99.90
58309;DHT22;44117;57.142;24.826;2022-10-26T07:38:05;11.90;99.90
58309;DHT22;44117;57.142;24.826;2022-10-26T07:40:32;11.80;99.90
58309;DHT22;44117;57.142;24.826;2022-10-26T07:43:00;11.90;99.90
58309;DHT22;44117;57.142;24.826;2022-10-26T07:45:28;11.90;99.90
58309;DHT22;44117;57.142;24.826;2022-10-26T07:47:56;11.90;99.90
58309;DHT22;44117;57.142;24.826;2022-10-26T07:50:24;11.90;99.90
58309;DHT22;44117;57.142;24.826;2022-10-26T07:52:51;11.90;99.90
58309;DHT22;44117;57.142;24.826;2022-10-26T07:55:19;11.90;99.90
58309;DHT22;44117;57.142;24.826;2022-10-26T07:57:46;11.80;99.90
58309;DHT22;44117;57.142;24.826;2022-10-26T08:00:20;11.80;99.90
58309;DHT22;44117;57.142;24.826;2022-10-26T08:02:48;11.80;99.90
58309;DHT22;44117;57.142;24.826;2022-10-26T08:05:16;11.80;99.90
58309;DHT22;44117;57.142;24.826;2022-10-26T08:07:44;11.80;99.90
58309;DHT22;44117;57.142;24.826;2022-10-26T08:10:12;11.80;99.90
58309;DHT22;44117;57.142;24.826;2022-10-26T08:12:40;11.80;99.90
58309;DHT22;44117;57.142;24.826;2022-10-26T08:15:08;11.80;99.90
58309;DHT22;44117;57.142;24.826;2022-10-26T08:17:36;11.90;99.90
58309;DHT22;44117;57.142;24.826;2022-10-26T08:20:03;12.00;99.90
58309;DHT22;44117;57.142;24.826;2022-10-26T08:22:30;12.00;99.90
58309;DHT22;44117;57.142;24.826;2022-10-26T08:24:58;12.00;99.90
58309;DHT22;44117;57.142;24.826;2022-10-26T08:27:25;12.10;99.90
58309;DHT22;44117;57.142;24.826;2022-10-26T08:29:52;12.00;99.90
58309;DHT22;44117;57.142;24.826;2022-10-26T08:32:19;12.00;99.90
58309;DHT22;44117;57.142;24.826;2022-10-26T08:34:46;12.00;99.90
58309;DHT22;44117;57.142;24.826;2022-10-26T08:37:13;12.00;99.90
58309;DHT22;44117;57.142;24.826;2022-10-26T08:39:40;12.10;99.90
58309;DHT22;44117;57.142;24.826;2022-10-26T08:42:39;12.10;99.90
58309;DHT22;44117;57.142;24.826;2022-10-26T08:47:59;12.10;99.90
58309;DHT22;44117;57.142;24.826;2022-10-26T08:50:40;12.10;99.90
58309;DHT22;44117;57.142;24.826;2022-10-26T08:56:36;12.10;99.90
58309;DHT22;44117;57.142;24.826;2022-10-26T09:02:13;12.00;99.90
58309;DHT22;44117;57.142;24.826;2022-10-26T09:04:42;12.00;99.90
58309;DHT22;44117;57.142;24.826;2022-10-26T09:10:31;12.00;99.90
58309;DHT22;44117;57.142;24.826;2022-10-26T09:25:21;12.20;99.90
58309;DHT22;44117;57.142;24.826;2022-10-26T09:27:55;12.20;99.90
58309;DHT22;44117;57.142;24.826;2022-10-26T09:30:23;12.30;99.90
58309;DHT22;44117;57.142;24.826;2022-10-26T09:33:10;12.30;99.90
58309;DHT22;44117;57.142;24.826;2022-10-26T09:36:02;12.30;99.90
58309;DHT22;44117;57.142;24.826;2022-10-26T09:49:38;12.20;99.90
58309;DHT22;44117;57.142;24.826;2022-10-26T09:52:08;12.10;99.90
58309;DHT22;44117;57.142;24.826;2022-10-26T09:54:41;12.20;99.90
58309;DHT22;44117;57.142;24.826;2022-10-26T09:57:08;12.20;99.90
58309;DHT22;44117;57.142;24.826;2022-10-26T09:59:39;12.20;99.90
58309;DHT22;44117;57.142;24.826;2022-10-26T10:02:38;12.40;99.90
58309;DHT22;44117;57.142;24.826;2022-10-26T10:08:25;12.40;99.90
58309;DHT22;44117;57.142;24.826;2022-10-26T10:11:06;12.40;99.90
58309;DHT22;44117;57.142;24.826;2022-10-26T10:13:36;12.40;99.90
58309;DHT22;44117;57.142;24.826;2022-10-26T10:16:20;12.40;99.90
58309;DHT22;44117;57.142;24.826;2022-10-26T10:18:56;12.30;99.90
58309;DHT22;44117;57.142;24.826;2022-10-26T10:21:44;12.20;99.90
58309;DHT22;44117;57.142;24.826;2022-10-26T10:24:25;12.20;99.90
58309;DHT22;44117;57.142;24.826;2022-10-26T10:29:29;12.10;99.90
58309;DHT22;44117;57.142;24.826;2022-10-26T10:31:58;12.10;99.90
58309;DHT22;44117;57.142;24.826;2022-10-26T10:34:28;12.10;99.90
58309;DHT22;44117;57.142;24.826;2022-10-26T10:36:57;12.10;99.90
58309;DHT22;44117;57.142;24.826;2022-10-26T10:39:38;12.10;99.90
58309;DHT22;44117;57.142;24.826;2022-10-26T10:42:15;12.00;99.90
58309;DHT22;44117;57.142;24.826;2022-10-26T10:44:44;12.00;99.90
58309;DHT22;44117;57.142;24.826;2022-10-26T10:47:22;12.00;99.90
58309;DHT22;44117;57.142;24.826;2022-10-26T10:52:33;12.00;99.90
58309;DHT22;44117;57.142;24.826;2022-10-26T10:57:54;11.90;99.90
58309;DHT22;44117;57.142;24.826;2022-10-26T11:00:23;11.90;99.90
58309;DHT22;44117;57.142;24.826;2022-10-26T11:09:10;11.80;99.90
58309;DHT22;44117;57.142;24.826;2022-10-26T11:11:52;11.80;99.90
58309;DHT22;44117;57.142;24.826;2022-10-26T11:14:34;11.80;99.90
58309;DHT22;44117;57.142;24.826;2022-10-26T11:19:56;11.90;99.90
58309;DHT22;44117;57.142;24.826;2022-10-26T11:22:38;11.90;99.90
58309;DHT22;44117;57.142;24.826;2022-10-26T11:25:12;12.00;99.90
58309;DHT22;44117;57.142;24.826;2022-10-26T11:27:50;12.00;99.90
58309;DHT22;44117;57.142;24.826;2022-10-26T11:30:23;12.00;99.90
58309;DHT22;44117;57.142;24.826;2022-10-26T11:35:46;12.00;99.90
58309;DHT22;44117;57.142;24.826;2022-10-26T11:38:20;12.00;99.90
58309;DHT22;44117;57.142;24.826;2022-10-26T11:44:08;12.00;99.90
58309;DHT22;44117;57.142;24.826;2022-10-26T11:46:44;12.00;99.90
58309;DHT22;44117;57.142;24.826;2022-10-26T11:49:21;12.00;99.90
58309;DHT22;44117;57.142;24.826;2022-10-26T11:52:11;11.90;99.90
58309;DHT22;44117;57.142;24.826;2022-10-26T11:55:00;11.90;99.90
58309;DHT22;44117;57.142;24.826;2022-10-26T11:57:34;11.90;99.90
58309;DHT22;44117;57.142;24.826;2022-10-26T12:02:39;11.90;99.90
58309;DHT22;44117;57.142;24.826;2022-10-26T12:05:18;11.90;99.90
58309;DHT22;44117;57.142;24.826;2022-10-26T12:07:58;11.90;99.90
58309;DHT22;44117;57.142;24.826;2022-10-26T12:10:32;12.00;99.90
58309;DHT22;44117;57.142;24.826;2022-10-26T12:13:23;12.00;99.90
58309;DHT22;44117;57.142;24.826;2022-10-26T12:18:45;12.00;99.90
58309;DHT22;44117;57.142;24.826;2022-10-26T12:21:30;12.00;99.90
58309;DHT22;44117;57.142;24.826;2022-10-26T12:24:23;12.00;99.90
58309;DHT22;44117;57.142;24.826;2022-10-26T12:26:57;12.00;99.90
58309;DHT22;44117;57.142;24.826;2022-10-26T12:29:28;12.00;99.90
58309;DHT22;44117;57.142;24.826;2022-10-26T12:31:56;12.00;99.90
58309;DHT22;44117;57.142;24.826;2022-10-26T12:39:35;11.90;99.90
58309;DHT22;44117;57.142;24.826;2022-10-26T12:47:08;12.00;99.90
58309;DHT22;44117;57.142;24.826;2022-10-26T12:52:51;12.00;99.90
58309;DHT22;44117;57.142;24.826;2022-10-26T13:03:32;12.20;99.90
58309;DHT22;44117;57.142;24.826;2022-10-26T13:08:47;12.20;99.90
58309;DHT22;44117;57.142;24.826;2022-10-26T13:11:29;12.20;99.90
58309;DHT22;44117;57.142;24.826;2022-10-26T13:14:01;12.20;99.90
58309;DHT22;44117;57.142;24.826;2022-10-26T13:16:29;12.20;99.90
58309;DHT22;44117;57.142;24.826;2022-10-26T13:18:57;12.10;99.90
58309;DHT22;44117;57.142;24.826;2022-10-26T13:21:25;12.20;99.90
58309;DHT22;44117;57.142;24.826;2022-10-26T13:26:23;12.20;99.90
58309;DHT22;44117;57.142;24.826;2022-10-26T13:29:01;12.20;99.90
58309;DHT22;44117;57.142;24.826;2022-10-26T13:34:19;12.10;99.90
58309;DHT22;44117;57.142;24.826;2022-10-26T13:37:04;12.10;99.90
58309;DHT22;44117;57.142;24.826;2022-10-26T13:39:38;12.10;99.90
58309;DHT22;44117;57.142;24.826;2022-10-26T13:42:12;12.10;99.90
58309;DHT22;44117;57.142;24.826;2022-10-26T13:45:02;12.00;99.90
58309;DHT22;44117;57.142;24.826;2022-10-26T13:47:55;12.00;99.90
58309;DHT22;44117;57.142;24.826;2022-10-26T13:50:30;12.00;99.90
58309;DHT22;44117;57.142;24.826;2022-10-26T13:53:04;11.90;99.90
58309;DHT22;44117;57.142;24.826;2022-10-26T13:59:07;11.90;99.90
58309;DHT22;44117;57.142;24.826;2022-10-26T14:01:31;11.90;99.90
58309;DHT22;44117;57.142;24.826;2022-10-26T14:03:59;11.80;99.90
58309;DHT22;44117;57.142;24.826;2022-10-26T14:06:39;11.80;99.90
58309;DHT22;44117;57.142;24.826;2022-10-26T14:09:14;11.80;99.90
58309;DHT22;44117;57.142;24.826;2022-10-26T14:11:48;11.80;99.90
58309;DHT22;44117;57.142;24.826;2022-10-26T14:14:19;11.80;99.90
58309;DHT22;44117;57.142;24.826;2022-10-26T14:16:49;11.80;99.90
58309;DHT22;44117;57.142;24.826;2022-10-26T14:19:38;11.80;99.90
58309;DHT22;44117;57.142;24.826;2022-10-26T14:22:06;11.80;99.90
58309;DHT22;44117;57.142;24.826;2022-10-26T14:24:37;11.70;99.90
58309;DHT22;44117;57.142;24.826;2022-10-26T14:27:19;11.70;99.90
58309;DHT22;44117;57.142;24.826;2022-10-26T14:29:51;11.70;99.90
58309;DHT22;44117;57.142;24.826;2022-10-26T14:32:38;11.70;99.90
58309;DHT22;44117;57.142;24.826;2022-10-26T14:35:11;11.70;99.90
58309;DHT22;44117;57.142;24.826;2022-10-26T14:40:20;11.70;99.90
58309;DHT22;44117;57.142;24.826;2022-10-26T14:42:51;11.70;99.90
58309;DHT22;44117;57.142;24.826;2022-10-26T14:47:56;11.60;99.90
58309;DHT22;44117;57.142;24.826;2022-10-26T14:50:24;11.60;99.90
58309;DHT22;44117;57.142;24.826;2022-10-26T14:53:04;11.60;99.90
58309;DHT22;44117;57.142;24.826;2022-10-26T14:55:48;11.60;99.90
58309;DHT22;44117;57.142;24.826;2022-10-26T14:58:29;11.60;99.90
58309;DHT22;44117;57.142;24.826;2022-10-26T15:01:24;11.60;99.90
58309;DHT22;44117;57.142;24.826;2022-10-26T15:03:58;11.50;99.90
58309;DHT22;44117;57.142;24.826;2022-10-26T15:09:00;11.50;99.90
58309;DHT22;44117;57.142;24.826;2022-10-26T15:11:34;11.50;99.90
58309;DHT22;44117;57.142;24.826;2022-10-26T15:14:11;11.40;99.90
58309;DHT22;44117;57.142;24.826;2022-10-26T15:16:38;11.40;99.90
58309;DHT22;44117;57.142;24.826;2022-10-26T15:19:08;11.40;99.90
58309;DHT22;44117;57.142;24.826;2022-10-26T15:21:38;11.40;99.90
58309;DHT22;44117;57.142;24.826;2022-10-26T15:24:32;11.40;99.90
58309;DHT22;44117;57.142;24.826;2022-10-26T15:27:13;11.30;99.90
58309;DHT22;44117;57.142;24.826;2022-10-26T15:29:47;11.30;99.90
58309;DHT22;44117;57.142;24.826;2022-10-26T15:32:30;11.30;99.90
58309;DHT22;44117;57.142;24.826;2022-10-26T15:37:44;11.30;99.90
58309;DHT22;44117;57.142;24.826;2022-10-26T15:40:12;11.30;99.90
58309;DHT22;44117;57.142;24.826;2022-10-26T15:42:41;11.30;99.90
58309;DHT22;44117;57.142;24.826;2022-10-26T15:45:33;11.20;99.90
58309;DHT22;44117;57.142;24.826;2022-10-26T15:48:21;11.20;99.90
58309;DHT22;44117;57.142;24.826;2022-10-26T15:50:49;11.20;99.90
58309;DHT22;44117;57.142;24.826;2022-10-26T15:53:24;11.20;99.90
58309;DHT22;44117;57.142;24.826;2022-10-26T15:55:58;11.20;99.90
58309;DHT22;44117;57.142;24.826;2022-10-26T15:58:28;11.10;99.90
58309;DHT22;44117;57.142;24.826;2022-10-26T16:00:56;11.20;99.90
58309;DHT22;44117;57.142;24.826;2022-10-26T16:03:25;11.10;99.90
58309;DHT22;44117;57.142;24.826;2022-10-26T16:05:57;11.00;99.90
58309;DHT22;44117;57.142;24.826;2022-10-26T16:08:28;11.00;99.90
58309;DHT22;44117;57.142;24.826;2022-10-26T16:10:57;11.00;99.90
58309;DHT22;44117;57.142;24.826;2022-10-26T16:13:24;11.00;99.90
58309;DHT22;44117;57.142;24.826;2022-10-26T16:15:52;11.00;99.90
58309;DHT22;44117;57.142;24.826;2022-10-26T16:18:19;11.00;99.90
58309;DHT22;44117;57.142;24.826;2022-10-26T16:20:47;11.00;99.90
58309;DHT22;44117;57.142;24.826;2022-10-26T16:23:14;11.00;99.90
58309;DHT22;44117;57.142;24.826;2022-10-26T16:25:44;10.90;99.90
58309;DHT22;44117;57.142;24.826;2022-10-26T16:28:14;11.00;99.90
58309;DHT22;44117;57.142;24.826;2022-10-26T16:30:42;11.00;99.90
58309;DHT22;44117;57.142;24.826;2022-10-26T16:33:10;10.90;99.90
58309;DHT22;44117;57.142;24.826;2022-10-26T16:35:37;10.90;99.90
58309;DHT22;44117;57.142;24.826;2022-10-26T16:38:04;10.90;99.90
58309;DHT22;44117;57.142;24.826;2022-10-26T16:40:31;10.90;99.90
58309;DHT22;44117;57.142;24.826;2022-10-26T16:42:59;10.90;99.90
58309;DHT22;44117;57.142;24.826;2022-10-26T16:45:26;10.90;99.90
58309;DHT22;44117;57.142;24.826;2022-10-26T16:47:53;10.80;99.90
58309;DHT22;44117;57.142;24.826;2022-10-26T16:50:20;10.80;99.90
58309;DHT22;44117;57.142;24.826;2022-10-26T16:52:49;10.80;99.90
58309;DHT22;44117;57.142;24.826;2022-10-26T16:55:16;10.90;99.90
58309;DHT22;44117;57.142;24.826;2022-10-26T16:57:43;10.90;99.90
58309;DHT22;44117;57.142;24.826;2022-10-26T17:00:10;10.90;99.90
58309;DHT22;44117;57.142;24.826;2022-10-26T17:02:38;10.90;99.90
58309;DHT22;44117;57.142;24.826;2022-10-26T17:05:06;10.90;99.90
58309;DHT22;44117;57.142;24.826;2022-10-26T17:07:35;10.90;99.90
58309;DHT22;44117;57.142;24.826;2022-10-26T17:10:03;10.90;99.90
58309;DHT22;44117;57.142;24.826;2022-10-26T17:12:30;10.90;99.90
58309;DHT22;44117;57.142;24.826;2022-10-26T17:14:57;10.90;99.90
58309;DHT22;44117;57.142;24.826;2022-10-26T17:17:26;10.90;99.90
58309;DHT22;44117;57.142;24.826;2022-10-26T17:19:53;10.90;99.90
58309;DHT22;44117;57.142;24.826;2022-10-26T17:22:21;10.90;99.90
58309;DHT22;44117;57.142;24.826;2022-10-26T17:24:48;10.90;99.90
58309;DHT22;44117;57.142;24.826;2022-10-26T17:27:15;10.90;99.90
58309;DHT22;44117;57.142;24.826;2022-10-26T17:29:43;10.90;99.90
58309;DHT22;44117;57.142;24.826;2022-10-26T17:32:12;10.90;99.90
58309;DHT22;44117;57.142;24.826;2022-10-26T17:34:40;10.90;99.90
58309;DHT22;44117;57.142;24.826;2022-10-26T17:37:07;10.90;99.90
58309;DHT22;44117;57.142;24.826;2022-10-26T17:39:35;10.90;99.90
58309;DHT22;44117;57.142;24.826;2022-10-26T17:42:02;10.90;99.90
58309;DHT22;44117;57.142;24.826;2022-10-26T17:44:29;10.90;99.90
58309;DHT22;44117;57.142;24.826;2022-10-26T17:46:57;10.80;99.90
58309;DHT22;44117;57.142;24.826;2022-10-26T17:49:24;10.90;99.90
58309;DHT22;44117;57.142;24.826;2022-10-26T17:51:54;10.90;99.90
58309;DHT22;44117;57.142;24.826;2022-10-26T17:54:22;10.90;99.90
58309;DHT22;44117;57.142;24.826;2022-10-26T17:56:49;10.90;99.90
58309;DHT22;44117;57.142;24.826;2022-10-26T17:59:16;10.90;99.90
58309;DHT22;44117;57.142;24.826;2022-10-26T18:01:45;10.90;99.90
58309;DHT22;44117;57.142;24.826;2022-10-26T18:04:12;10.90;99.90
58309;DHT22;44117;57.142;24.826;2022-10-26T18:06:39;10.90;99.90
58309;DHT22;44117;57.142;24.826;2022-10-26T18:09:08;10.80;99.90
58309;DHT22;44117;57.142;24.826;2022-10-26T18:11:36;10.90;99.90
58309;DHT22;44117;57.142;24.826;2022-10-26T18:14:03;10.90;99.90
58309;DHT22;44117;57.142;24.826;2022-10-26T18:16:30;10.90;99.90
58309;DHT22;44117;57.142;24.826;2022-10-26T18:18:59;10.80;99.90
58309;DHT22;44117;57.142;24.826;2022-10-26T18:21:32;10.90;99.90
58309;DHT22;44117;57.142;24.826;2022-10-26T18:24:00;10.80;99.90
58309;DHT22;44117;57.142;24.826;2022-10-26T18:26:28;10.80;99.90
58309;DHT22;44117;57.142;24.826;2022-10-26T18:28:57;10.80;99.90